Time;durP1;ratioP1;P1;durP2;ratioP2;P2;SDS_P1;SDS_P2;PMS_P1;PMS_P2;Temp;Humidity;BMP_temperature;BMP_pressure;BME280_temperature;BME280_humidity;BME280_pressure;Samples;Min_cycle;Max_cycle;Signal;HPM_P1;HPM_P2
2023/09/20 00:00:24;;;;;;;3.27;1.63;;;16.20;99.90;;;;;;5017022;28;20477;-70
2023/09/20 00:03:10;;;;;;;2.80;1.50;;;16.30;99.90;;;;;;5000892;28;20510;-70
2023/09/20 00:05:56;;;;;;;5.00;1.80;;;16.40;99.90;;;;;;4998004;28;20516;-70
2023/09/20 00:08:41;;;;;;;3.80;1.47;;;16.40;99.90;;;;;;5000545;28;20547;-70
2023/09/20 00:11:27;;;;;;;5.40;1.40;;;16.30;99.90;;;;;;5002007;28;20419;-71
2023/09/20 00:14:13;;;;;;;2.10;1.40;;;16.30;99.90;;;;;;5007052;28;20815;-71
2023/09/20 00:17:00;;;;;;;3.17;1.37;;;16.30;99.90;;;;;;5012263;28;20624;-70
2023/09/20 00:19:46;;;;;;;3.43;1.40;;;16.20;99.90;;;;;;5010872;28;20512;-70
2023/09/20 00:22:32;;;;;;;2.40;1.50;;;16.20;99.90;;;;;;5011448;28;20529;-70
2023/09/20 00:25:18;;;;;;;4.03;1.60;;;16.10;99.90;;;;;;5007631;28;20449;-70
2023/09/20 00:28:05;;;;;;;3.37;1.60;;;16.00;99.90;;;;;;5008908;28;20461;-70
2023/09/20 00:30:50;;;;;;;3.73;1.73;;;16.00;99.90;;;;;;5007754;28;20481;-70
2023/09/20 00:33:37;;;;;;;3.63;2.03;;;15.90;99.90;;;;;;5000719;28;20636;-70
2023/09/20 00:36:23;;;;;;;2.23;1.23;;;15.90;99.90;;;;;;5013764;28;20485;-70
2023/09/20 00:39:09;;;;;;;3.27;1.67;;;15.80;99.90;;;;;;5011617;28;20443;-70
2023/09/20 00:41:55;;;;;;;3.00;1.40;;;15.70;99.90;;;;;;5012013;28;20492;-70
2023/09/20 00:44:41;;;;;;;2.80;1.53;;;15.70;99.90;;;;;;5001861;28;20958;-70
2023/09/20 00:47:27;;;;;;;6.07;1.80;;;15.80;99.90;;;;;;5011522;28;20411;-69
2023/09/20 00:50:15;;;;;;;3.43;1.70;;;15.70;99.90;;;;;;5017591;28;20576;-70
2023/09/20 00:53:06;;;;;;;5.63;1.80;;;15.80;99.90;;;;;;5015985;28;20418;-70
2023/09/20 00:55:51;;;;;;;3.57;1.53;;;15.80;99.90;;;;;;5018827;28;21019;-70
2023/09/20 00:58:39;;;;;;;3.77;1.73;;;15.80;99.90;;;;;;5014373;28;20423;-70
2023/09/20 01:01:27;;;;;;;4.30;1.43;;;15.80;99.90;;;;;;5022479;28;20423;-70
2023/09/20 01:04:12;;;;;;;3.20;1.37;;;15.80;99.90;;;;;;5008937;28;20428;-70
2023/09/20 01:06:59;;;;;;;3.27;1.80;;;15.70;99.90;;;;;;5010370;28;20838;-70
2023/09/20 01:09:47;;;;;;;7.97;1.80;;;15.70;99.90;;;;;;5015233;28;20554;-70
2023/09/20 01:12:34;;;;;;;3.30;1.67;;;15.70;99.90;;;;;;5010508;28;20446;-70
2023/09/20 01:15:20;;;;;;;4.90;1.80;;;15.70;99.90;;;;;;5011901;28;20447;-70
2023/09/20 01:18:07;;;;;;;3.40;1.83;;;15.70;99.90;;;;;;5009124;28;20512;-70
2023/09/20 01:20:52;;;;;;;2.60;1.47;;;15.80;99.90;;;;;;5026773;22;20602;-77
2023/09/20 01:23:42;;;;;;;4.37;2.40;;;15.80;99.90;;;;;;4998301;28;20430;-76
2023/09/20 01:26:28;;;;;;;4.10;1.83;;;15.80;99.90;;;;;;5002140;28;20457;-76
2023/09/20 01:29:14;;;;;;;4.13;1.50;;;15.90;99.90;;;;;;5006396;28;20484;-78
2023/09/20 01:32:04;;;;;;;2.43;1.57;;;16.00;99.90;;;;;;4985622;28;20675;-77
2023/09/20 01:34:49;;;;;;;2.57;1.50;;;15.90;99.90;;;;;;4983455;28;20450;-78
2023/09/20 01:37:35;;;;;;;2.53;1.70;;;16.00;99.90;;;;;;4985678;28;20555;-77
2023/09/20 01:40:25;;;;;;;3.70;1.50;;;16.00;99.90;;;;;;4979304;28;20761;-78
2023/09/20 01:43:11;;;;;;;3.40;1.90;;;16.00;99.90;;;;;;4983705;28;20437;-78
2023/09/20 01:45:57;;;;;;;3.30;2.00;;;15.90;99.90;;;;;;4980333;28;20445;-76
2023/09/20 01:48:42;;;;;;;2.23;1.50;;;16.00;99.90;;;;;;4984584;28;20979;-77
2023/09/20 01:51:28;;;;;;;4.50;1.70;;;15.90;99.90;;;;;;4984504;28;20504;-76
2023/09/20 01:54:13;;;;;;;3.60;1.60;;;15.90;99.90;;;;;;4982299;28;20605;-77
2023/09/20 01:57:00;;;;;;;2.23;1.43;;;15.90;99.90;;;;;;4982226;28;20488;-77
2023/09/20 01:59:47;;;;;;;5.60;1.80;;;15.80;99.90;;;;;;4981733;28;21114;-77
2023/09/20 02:02:34;;;;;;;3.33;1.83;;;15.90;99.90;;;;;;4981110;28;20457;-76
2023/09/20 02:05:19;;;;;;;6.20;1.70;;;15.90;99.90;;;;;;4982854;28;20454;-73
2023/09/20 02:08:07;;;;;;;3.97;1.80;;;15.90;99.90;;;;;;4983544;28;20813;-77
2023/09/20 02:10:52;;;;;;;4.47;1.80;;;15.80;99.90;;;;;;4988243;28;21054;-78
2023/09/20 02:13:39;;;;;;;4.80;1.60;;;15.90;99.90;;;;;;4984570;28;20424;-77
2023/09/20 02:16:25;;;;;;;5.37;1.80;;;15.90;99.90;;;;;;4996285;28;20556;-78
2023/09/20 02:19:13;;;;;;;2.40;1.67;;;15.80;99.90;;;;;;4996592;28;20695;-78
2023/09/20 02:21:59;;;;;;;3.70;1.80;;;15.90;99.90;;;;;;4998928;28;20763;-76
2023/09/20 02:24:45;;;;;;;2.17;1.37;;;15.90;99.90;;;;;;4990617;28;20462;-75
2023/09/20 02:27:31;;;;;;;2.67;1.60;;;16.00;99.90;;;;;;4990419;28;20519;-77
2023/09/20 02:30:19;;;;;;;2.77;1.77;;;16.00;99.90;;;;;;4988396;28;20492;-73
2023/09/20 02:33:07;;;;;;;5.63;2.40;;;16.10;99.90;;;;;;4990173;28;20804;-77
2023/09/20 02:35:52;;;;;;;4.20;1.80;;;16.10;99.90;;;;;;4993915;28;20453;-77
2023/09/20 02:38:38;;;;;;;6.17;1.60;;;16.20;99.90;;;;;;4989769;28;20802;-77
2023/09/20 02:41:23;;;;;;;3.50;1.90;;;16.20;99.90;;;;;;4989038;28;20618;-78
2023/09/20 02:44:09;;;;;;;3.27;2.10;;;16.10;99.90;;;;;;4988743;28;20499;-76
2023/09/20 02:46:56;;;;;;;6.20;1.90;;;16.10;99.90;;;;;;4990087;28;20476;-76
2023/09/20 02:49:43;;;;;;;2.63;1.30;;;16.20;99.90;;;;;;4989035;28;20457;-77
2023/09/20 02:52:29;;;;;;;9.50;1.83;;;16.20;99.90;;;;;;4990487;28;20574;-75
2023/09/20 02:55:17;;;;;;;3.10;1.80;;;16.30;99.90;;;;;;4990055;28;20943;-78
2023/09/20 02:58:03;;;;;;;3.13;1.80;;;16.30;99.90;;;;;;4986185;28;20886;-78
2023/09/20 03:00:50;;;;;;;4.47;2.30;;;16.40;99.90;;;;;;4986154;28;21040;-76
2023/09/20 03:03:37;;;;;;;2.93;2.13;;;16.30;99.90;;;;;;4986559;28;20442;-75
2023/09/20 03:06:23;;;;;;;5.40;1.87;;;16.40;99.90;;;;;;4990626;28;20524;-78
2023/09/20 03:09:09;;;;;;;4.00;1.60;;;16.40;99.90;;;;;;4988062;28;20492;-78
2023/09/20 03:11:55;;;;;;;2.60;1.67;;;16.40;99.90;;;;;;4990343;28;20464;-78
2023/09/20 03:14:41;;;;;;;6.13;2.10;;;16.40;99.90;;;;;;4990584;28;20456;-77
2023/09/20 03:17:27;;;;;;;5.03;1.90;;;16.40;99.90;;;;;;4991666;28;20981;-78
2023/09/20 03:20:22;;;;;;;3.90;1.53;;;16.50;99.90;;;;;;4990076;28;20550;-77
2023/09/20 03:23:08;;;;;;;3.90;2.03;;;16.60;99.90;;;;;;4989087;28;20977;-76
2023/09/20 03:25:53;;;;;;;2.90;1.80;;;16.50;99.90;;;;;;4986116;28;20423;-76
2023/09/20 03:28:41;;;;;;;2.83;1.80;;;16.60;99.90;;;;;;4987649;28;20414;-78
2023/09/20 03:31:28;;;;;;;5.43;2.00;;;16.70;99.90;;;;;;4988076;28;20916;-76
2023/09/20 03:34:14;;;;;;;4.80;1.83;;;16.60;99.90;;;;;;4989406;28;20450;-77
2023/09/20 03:37:01;;;;;;;3.20;1.93;;;16.70;99.90;;;;;;4983166;28;20486;-76
2023/09/20 03:39:50;;;;;;;3.50;1.80;;;16.70;99.90;;;;;;4985119;28;20464;-78
2023/09/20 03:42:36;;;;;;;2.50;1.50;;;16.70;99.90;;;;;;4986093;28;20418;-77
2023/09/20 03:45:22;;;;;;;4.57;1.80;;;16.70;99.90;;;;;;4986482;28;20432;-77
2023/09/20 03:48:08;;;;;;;3.53;1.90;;;16.70;99.90;;;;;;4987897;28;20579;-78
2023/09/20 03:50:53;;;;;;;3.87;1.67;;;16.70;99.90;;;;;;4984463;28;20444;-77
2023/09/20 03:53:41;;;;;;;3.87;1.67;;;16.70;99.90;;;;;;4981560;28;20902;-77
2023/09/20 03:56:27;;;;;;;4.80;2.40;;;16.60;99.90;;;;;;4985363;28;20465;-76
2023/09/20 03:59:13;;;;;;;2.67;1.53;;;16.70;99.90;;;;;;4984639;28;20814;-77
2023/09/20 04:01:58;;;;;;;3.30;1.97;;;16.70;99.90;;;;;;4984673;28;20490;-77
2023/09/20 04:04:44;;;;;;;3.70;1.97;;;16.60;99.90;;;;;;4987549;28;20451;-76
2023/09/20 04:07:30;;;;;;;3.80;2.17;;;16.60;99.90;;;;;;4984967;28;20827;-76
2023/09/20 04:10:18;;;;;;;2.57;1.87;;;16.50;99.90;;;;;;4990919;28;20466;-76
2023/09/20 04:13:04;;;;;;;2.80;1.90;;;16.50;99.90;;;;;;4983734;28;20511;-77
2023/09/20 04:15:49;;;;;;;5.93;1.93;;;16.40;99.90;;;;;;4986201;28;20533;-76
2023/09/20 04:18:35;;;;;;;4.10;1.97;;;16.30;99.90;;;;;;4983507;28;20457;-77
2023/09/20 04:21:23;;;;;;;2.87;2.10;;;16.30;99.90;;;;;;4992986;28;20458;-77
2023/09/20 04:24:09;;;;;;;3.43;2.30;;;16.20;99.90;;;;;;4985561;28;20846;-77
2023/09/20 04:26:56;;;;;;;3.60;2.13;;;16.20;99.90;;;;;;4987234;28;20961;-77
2023/09/20 04:29:42;;;;;;;4.40;2.00;;;16.30;99.90;;;;;;4985489;28;20466;-75
2023/09/20 04:32:28;;;;;;;4.33;1.90;;;16.20;99.90;;;;;;4988204;28;20510;-74
2023/09/20 04:35:13;;;;;;;3.63;2.27;;;16.30;99.90;;;;;;4984885;28;20494;-76
2023/09/20 04:37:59;;;;;;;3.87;2.00;;;16.30;99.90;;;;;;4985975;28;20462;-75
2023/09/20 04:40:45;;;;;;;4.50;2.30;;;16.40;99.90;;;;;;4982286;28;20630;-74
2023/09/20 04:43:32;;;;;;;4.40;2.30;;;16.30;99.90;;;;;;4985774;28;20429;-77
2023/09/20 04:46:18;;;;;;;3.57;2.30;;;16.40;99.90;;;;;;4983183;28;20452;-76
2023/09/20 04:49:04;;;;;;;5.53;2.07;;;16.50;99.90;;;;;;4982622;28;20455;-77
2023/09/20 04:51:51;;;;;;;3.57;2.20;;;16.50;99.90;;;;;;4983691;28;20444;-77
2023/09/20 04:54:37;;;;;;;4.00;2.53;;;16.60;99.90;;;;;;4980425;28;20570;-77
2023/09/20 04:57:23;;;;;;;4.63;1.77;;;16.60;99.90;;;;;;4981105;28;20477;-77
2023/09/20 05:00:14;;;;;;;2.77;2.03;;;16.70;99.90;;;;;;4983933;28;20466;-76
2023/09/20 05:03:00;;;;;;;10.43;2.73;;;16.60;99.90;;;;;;4983122;28;20465;-77
2023/09/20 05:05:47;;;;;;;7.60;2.57;;;16.70;99.90;;;;;;4980886;28;20826;-74
2023/09/20 05:08:33;;;;;;;3.70;2.23;;;16.70;99.90;;;;;;4985047;28;20804;-76
2023/09/20 05:11:19;;;;;;;4.30;2.67;;;16.70;99.90;;;;;;4985551;28;20485;-77
2023/09/20 05:14:05;;;;;;;5.90;2.50;;;16.60;99.90;;;;;;4986264;28;20468;-76
2023/09/20 05:16:52;;;;;;;8.27;3.07;;;16.60;99.90;;;;;;4989172;28;20501;-77
2023/09/20 05:19:39;;;;;;;3.40;2.40;;;16.60;99.90;;;;;;4984322;28;20460;-75
2023/09/20 05:22:24;;;;;;;4.93;2.20;;;16.60;99.90;;;;;;4985934;28;20458;-75
2023/09/20 05:25:11;;;;;;;7.10;2.30;;;16.50;99.90;;;;;;4984053;28;20444;-76
2023/09/20 05:27:56;;;;;;;4.40;2.33;;;16.50;99.90;;;;;;4983314;28;20540;-75
2023/09/20 05:30:44;;;;;;;2.93;1.93;;;16.50;99.90;;;;;;4983302;28;20602;-77
2023/09/20 05:33:31;;;;;;;4.07;2.30;;;16.50;99.90;;;;;;4979757;28;20586;-76
2023/09/20 05:36:20;;;;;;;10.53;2.17;;;16.50;99.90;;;;;;4985029;28;20851;-77
2023/09/20 05:39:07;;;;;;;4.47;2.40;;;16.60;99.90;;;;;;4979832;28;20597;-77
2023/09/20 05:41:52;;;;;;;2.80;1.70;;;16.60;99.90;;;;;;4982705;28;20459;-76
2023/09/20 05:44:38;;;;;;;4.70;2.20;;;16.70;99.90;;;;;;4985043;28;20487;-77
2023/09/20 05:47:25;;;;;;;9.53;2.33;;;16.70;99.90;;;;;;4984145;28;20472;-77
2023/09/20 05:50:13;;;;;;;5.03;1.87;;;16.80;99.90;;;;;;4982891;28;21014;-77
2023/09/20 05:52:59;;;;;;;4.23;2.03;;;16.90;99.90;;;;;;4986645;28;20814;-76
2023/09/20 05:55:45;;;;;;;4.00;1.87;;;17.00;99.90;;;;;;4985633;28;20526;-77
2023/09/20 05:58:31;;;;;;;5.00;2.03;;;17.20;99.90;;;;;;4982354;28;20483;-76
2023/09/20 06:01:17;;;;;;;4.40;2.13;;;17.30;99.90;;;;;;4984043;28;20449;-77
2023/09/20 06:04:04;;;;;;;3.30;1.97;;;17.40;99.90;;;;;;4986470;28;20672;-77
2023/09/20 06:06:54;;;;;;;3.10;1.77;;;17.50;99.90;;;;;;4984483;28;20454;-77
2023/09/20 06:09:39;;;;;;;3.87;1.53;;;17.60;99.90;;;;;;4984271;28;20574;-77
2023/09/20 06:12:25;;;;;;;2.73;1.63;;;17.70;99.90;;;;;;4986617;28;20475;-76
2023/09/20 06:15:13;;;;;;;6.00;2.00;;;17.80;99.90;;;;;;4985737;28;20450;-75
2023/09/20 06:17:59;;;;;;;3.63;1.67;;;17.80;99.90;;;;;;4986727;28;20516;-77
2023/09/20 06:20:50;;;;;;;7.30;2.63;;;17.90;99.90;;;;;;4987999;28;20467;-76
2023/09/20 06:23:39;;;;;;;2.83;1.90;;;18.00;99.90;;;;;;4985009;28;20456;-74
2023/09/20 06:26:25;;;;;;;3.97;2.17;;;18.20;99.90;;;;;;4988123;28;20433;-75
2023/09/20 06:29:11;;;;;;;3.20;1.47;;;18.20;99.90;;;;;;4984494;28;20517;-77
2023/09/20 06:31:56;;;;;;;7.83;2.23;;;18.30;99.90;;;;;;4987997;28;20489;-77
2023/09/20 06:34:42;;;;;;;4.23;1.80;;;18.40;99.90;;;;;;4985990;28;20593;-76
2023/09/20 06:37:27;;;;;;;4.90;2.00;;;18.50;99.90;;;;;;4983041;28;20496;-75
2023/09/20 06:40:22;;;;;;;3.20;1.73;;;18.50;99.90;;;;;;4984545;28;20472;-77
2023/09/20 06:43:08;;;;;;;2.60;1.63;;;18.60;99.90;;;;;;4982563;28;20452;-77
2023/09/20 06:45:56;;;;;;;5.80;2.03;;;18.60;99.90;;;;;;4983177;28;20456;-74
2023/09/20 06:48:41;;;;;;;5.23;1.80;;;18.50;99.90;;;;;;4984322;28;20874;-75
2023/09/20 06:51:27;;;;;;;5.00;1.73;;;18.50;99.90;;;;;;4981264;28;20537;-74
2023/09/20 06:54:13;;;;;;;7.07;2.20;;;18.50;99.90;;;;;;4983533;28;21133;-76
2023/09/20 06:57:03;;;;;;;4.90;1.97;;;18.50;99.90;;;;;;4982189;28;20464;-77
2023/09/20 06:59:51;;;;;;;3.50;1.90;;;18.50;99.90;;;;;;4980007;28;20548;-78
2023/09/20 07:02:36;;;;;;;3.43;1.60;;;18.50;99.90;;;;;;4993265;28;20805;-77
2023/09/20 07:05:24;;;;;;;4.30;1.53;;;18.50;99.90;;;;;;4990966;28;20869;-77
2023/09/20 07:08:10;;;;;;;4.43;1.43;;;18.50;99.90;;;;;;4988854;28;20429;-76
2023/09/20 07:10:56;;;;;;;3.80;1.50;;;18.60;99.90;;;;;;4989627;28;20464;-74
2023/09/20 07:13:43;;;;;;;3.30;1.80;;;18.60;99.90;;;;;;4985313;28;20823;-77
2023/09/20 07:16:30;;;;;;;5.10;2.30;;;18.80;99.90;;;;;;4980822;28;20516;-77
2023/09/20 07:19:17;;;;;;;5.97;1.90;;;18.90;99.90;;;;;;4988570;28;21190;-77
2023/09/20 07:22:03;;;;;;;2.40;1.40;;;19.10;99.90;;;;;;4988967;28;20456;-77
2023/09/20 07:24:54;;;;;;;5.80;1.70;;;19.20;99.90;;;;;;4987484;28;20825;-77
2023/09/20 07:27:40;;;;;;;2.83;1.47;;;19.30;99.90;;;;;;4987945;28;20445;-76
2023/09/20 07:30:31;;;;;;;3.37;1.50;;;19.50;99.90;;;;;;4988697;28;20478;-77
2023/09/20 07:33:19;;;;;;;2.60;1.70;;;19.50;99.90;;;;;;4986230;28;20477;-77
2023/09/20 07:36:05;;;;;;;4.47;1.43;;;19.50;99.90;;;;;;4986914;28;20520;-77
2023/09/20 07:38:51;;;;;;;5.30;2.00;;;19.60;99.90;;;;;;4986718;28;20548;-77
2023/09/20 07:41:37;;;;;;;3.80;1.83;;;19.50;99.90;;;;;;4988192;28;20439;-76
2023/09/20 07:44:24;;;;;;;5.30;1.50;;;19.60;99.90;;;;;;4982990;28;20450;-77
2023/09/20 07:47:13;;;;;;;4.07;1.77;;;19.60;99.90;;;;;;4986213;28;22384;-76
2023/09/20 07:49:58;;;;;;;2.67;1.57;;;19.50;99.90;;;;;;4987265;28;20552;-75
2023/09/20 07:52:44;;;;;;;2.97;1.50;;;19.40;99.90;;;;;;4986177;28;20441;-77
2023/09/20 07:55:30;;;;;;;5.70;1.97;;;19.50;99.90;;;;;;4984870;28;20561;-74
2023/09/20 07:58:19;;;;;;;7.53;2.70;;;19.60;99.90;;;;;;4986033;28;20488;-76
2023/09/20 08:01:10;;;;;;;3.20;1.83;;;19.60;99.90;;;;;;4984377;28;20466;-74
2023/09/20 08:03:59;;;;;;;4.17;1.93;;;19.70;99.90;;;;;;4988233;28;20419;-77
2023/09/20 08:06:45;;;;;;;7.93;2.10;;;19.70;99.90;;;;;;4986234;28;20512;-77
2023/09/20 08:09:31;;;;;;;7.33;1.53;;;19.80;99.90;;;;;;4984373;28;21085;-76
2023/09/20 08:12:17;;;;;;;6.50;1.93;;;19.90;99.90;;;;;;4985909;28;20501;-77
2023/09/20 08:15:04;;;;;;;2.83;1.80;;;20.10;99.90;;;;;;4990661;28;20434;-76
2023/09/20 08:20:54;;;;;;;2.30;1.50;;;20.10;99.80;;;;;;4992392;28;20491;-76
2023/09/20 09:00:35;;;;;;;3.07;1.60;;;20.50;93.40;;;;;;4981122;28;20490;-76
2023/09/20 09:03:22;;;;;;;4.53;1.83;;;20.60;92.40;;;;;;4987774;28;20495;-77
2023/09/20 09:06:09;;;;;;;3.90;1.67;;;20.70;89.50;;;;;;4989205;28;20533;-75
2023/09/20 09:08:56;;;;;;;4.20;1.77;;;20.90;88.00;;;;;;4987622;28;20445;-75
2023/09/20 09:11:45;;;;;;;6.13;2.27;;;21.00;85.50;;;;;;4988184;28;20820;-77
2023/09/20 09:14:31;;;;;;;3.00;1.80;;;21.20;85.70;;;;;;4984648;28;20525;-76
2023/09/20 09:17:17;;;;;;;5.50;2.60;;;21.20;87.20;;;;;;4986164;28;20964;-76
2023/09/20 09:20:05;;;;;;;8.10;2.37;;;21.20;84.40;;;;;;4980120;28;20491;-76
2023/09/20 09:22:51;;;;;;;3.50;2.27;;;21.30;87.50;;;;;;4990118;28;20446;-76
2023/09/20 09:25:38;;;;;;;5.00;1.90;;;21.50;90.10;;;;;;4986013;28;20497;-76
2023/09/20 09:28:26;;;;;;;8.60;4.67;;;21.40;78.80;;;;;;4986616;28;20454;-78
2023/09/20 09:31:13;;;;;;;9.17;3.33;;;21.50;78.60;;;;;;4979923;28;20600;-77
2023/09/20 09:34:02;;;;;;;8.80;2.47;;;21.60;77.40;;;;;;4978070;28;20457;-74
2023/09/20 09:36:48;;;;;;;3.20;1.70;;;21.60;74.90;;;;;;4979905;28;20428;-75
2023/09/20 09:39:36;;;;;;;4.57;1.97;;;21.60;77.30;;;;;;4977007;28;20859;-76
2023/09/20 09:42:25;;;;;;;3.33;1.97;;;21.50;75.00;;;;;;4981277;28;20466;-75
2023/09/20 09:45:12;;;;;;;6.47;1.93;;;21.40;72.10;;;;;;4981649;28;20443;-75
2023/09/20 09:48:00;;;;;;;4.07;1.63;;;21.40;75.70;;;;;;4987138;28;20585;-74
2023/09/20 09:50:47;;;;;;;9.27;5.10;;;21.40;72.80;;;;;;4988301;28;21048;-77
2023/09/20 09:53:34;;;;;;;3.63;1.80;;;21.40;75.70;;;;;;4989256;28;20505;-77
2023/09/20 09:56:20;;;;;;;5.70;1.87;;;21.30;74.20;;;;;;4989720;28;20449;-75
2023/09/20 09:59:07;;;;;;;3.20;1.87;;;21.30;72.00;;;;;;4988273;28;20466;-76
2023/09/20 10:01:55;;;;;;;6.20;3.00;;;21.20;72.90;;;;;;4991038;28;21070;-77
2023/09/20 10:04:41;;;;;;;4.90;2.30;;;21.20;75.60;;;;;;4988521;28;20455;-76
2023/09/20 10:07:31;;;;;;;6.20;1.90;;;21.30;75.10;;;;;;4990128;28;20449;-77
2023/09/20 10:10:22;;;;;;;5.00;2.80;;;21.40;73.80;;;;;;4984972;28;20444;-76
2023/09/20 10:13:08;;;;;;;3.77;1.80;;;21.50;75.80;;;;;;4986691;28;20424;-75
2023/09/20 10:15:58;;;;;;;4.50;1.77;;;21.70;74.20;;;;;;4989593;28;20450;-77
2023/09/20 10:18:56;;;;;;;4.13;2.30;;;21.90;71.60;;;;;;4987924;28;20956;-77
2023/09/20 10:22:01;;;;;;;4.40;2.13;;;21.90;70.90;;;;;;4987347;28;20895;-77
2023/09/20 10:24:53;;;;;;;4.23;1.97;;;22.00;69.40;;;;;;4986678;28;20477;-77
2023/09/20 10:27:40;;;;;;;3.30;2.00;;;22.10;66.60;;;;;;4984346;28;20493;-77
2023/09/20 10:30:28;;;;;;;4.37;1.97;;;22.30;65.40;;;;;;4985833;28;20461;-77
2023/09/20 10:33:35;;;;;;;8.03;1.97;;;22.40;64.00;;;;;;4983150;28;20469;-77
2023/09/20 10:36:24;;;;;;;7.43;1.67;;;22.50;62.20;;;;;;4990520;28;20517;-77
2023/09/20 10:39:22;;;;;;;3.37;1.60;;;22.60;57.10;;;;;;4991196;28;20482;-77
2023/09/20 10:42:12;;;;;;;4.17;2.40;;;22.70;56.20;;;;;;4993207;28;20466;-74
2023/09/20 10:44:59;;;;;;;6.00;2.40;;;22.80;53.00;;;;;;4990894;28;20517;-75
2023/09/20 10:47:49;;;;;;;7.90;1.60;;;22.80;50.90;;;;;;4990835;28;20536;-77
2023/09/20 10:50:49;;;;;;;4.23;1.43;;;22.90;49.30;;;;;;4991397;28;20535;-75
2023/09/20 10:53:55;;;;;;;4.70;1.90;;;23.20;50.60;;;;;;4990557;28;20525;-77
2023/09/20 10:56:54;;;;;;;5.33;1.83;;;23.50;52.90;;;;;;4991449;28;20453;-77
2023/09/20 10:59:44;;;;;;;9.00;1.73;;;23.80;46.20;;;;;;4992682;28;21034;-77
2023/09/20 11:02:29;;;;;;;4.00;2.20;;;24.00;45.50;;;;;;4991251;28;20511;-76
2023/09/20 11:05:17;;;;;;;6.67;1.73;;;24.10;45.40;;;;;;4991059;28;20574;-76
2023/09/20 11:08:08;;;;;;;7.80;1.90;;;24.30;44.20;;;;;;4991359;28;20588;-76
2023/09/20 11:10:58;;;;;;;5.47;1.70;;;24.30;39.10;;;;;;4990640;28;20580;-77
2023/09/20 11:13:46;;;;;;;5.23;1.70;;;24.40;41.20;;;;;;4995470;28;20463;-76
2023/09/20 11:16:32;;;;;;;4.23;1.60;;;24.30;37.40;;;;;;4997083;28;20446;-76
2023/09/20 11:19:19;;;;;;;8.00;2.10;;;24.30;33.80;;;;;;4993092;28;20524;-76
2023/09/20 11:22:05;;;;;;;3.20;1.57;;;24.30;35.00;;;;;;4991307;28;20448;-77
2023/09/20 11:24:52;;;;;;;4.83;1.77;;;24.40;34.70;;;;;;4996942;28;20455;-77
2023/09/20 11:27:38;;;;;;;2.83;1.23;;;24.50;35.30;;;;;;4994966;28;20454;-77
2023/09/20 11:30:27;;;;;;;2.90;1.30;;;24.50;32.80;;;;;;4986524;28;20472;-76
2023/09/20 11:33:27;;;;;;;5.57;2.30;;;24.30;30.60;;;;;;4992340;28;20583;-78
2023/09/20 11:36:18;;;;;;;3.07;1.40;;;24.40;33.70;;;;;;4983793;28;20453;-78
2023/09/20 11:39:05;;;;;;;12.37;2.73;;;24.50;33.00;;;;;;4991718;28;21533;-77
2023/09/20 11:41:52;;;;;;;4.77;1.40;;;24.50;30.00;;;;;;4993037;28;20962;-77
2023/09/20 11:44:38;;;;;;;3.90;1.60;;;24.40;30.00;;;;;;4992816;28;20506;-78
2023/09/20 11:47:24;;;;;;;2.80;1.50;;;24.30;28.10;;;;;;4986241;28;20504;-78
2023/09/20 11:50:14;;;;;;;2.97;1.60;;;24.10;27.40;;;;;;4985919;28;20619;-77
2023/09/20 11:52:59;;;;;;;9.30;2.23;;;24.10;28.90;;;;;;4989500;28;20462;-75
2023/09/20 11:55:45;;;;;;;3.57;1.70;;;24.30;32.40;;;;;;4990180;28;20522;-77
2023/09/20 11:58:34;;;;;;;7.27;2.10;;;24.50;27.80;;;;;;4988270;28;20446;-78
2023/09/20 12:01:24;;;;;;;3.43;2.13;;;24.50;27.60;;;;;;4991952;28;20940;-78
2023/09/20 12:04:10;;;;;;;5.33;1.93;;;24.60;27.00;;;;;;4988217;28;20446;-78
2023/09/20 12:06:56;;;;;;;3.60;1.80;;;24.70;26.00;;;;;;4993749;28;20471;-78
2023/09/20 12:09:41;;;;;;;3.87;1.97;;;24.80;27.30;;;;;;4990348;28;20471;-78
2023/09/20 12:12:27;;;;;;;3.10;1.43;;;24.90;24.30;;;;;;4981872;28;20443;-79
2023/09/20 12:15:15;;;;;;;5.50;1.80;;;24.90;25.50;;;;;;4990962;28;20447;-78
2023/09/20 12:18:00;;;;;;;3.80;2.13;;;25.00;25.20;;;;;;4989901;28;20454;-78
2023/09/20 12:20:48;;;;;;;3.60;1.80;;;25.10;24.90;;;;;;4989070;28;20484;-78
2023/09/20 12:23:35;;;;;;;3.23;1.70;;;25.10;21.90;;;;;;4989821;28;20437;-77
2023/09/20 12:26:21;;;;;;;3.37;1.50;;;25.10;22.50;;;;;;4986068;28;20472;-78
2023/09/20 12:29:06;;;;;;;3.13;1.47;;;25.10;23.30;;;;;;4988788;28;20440;-78
2023/09/20 12:31:55;;;;;;;5.10;1.80;;;25.20;25.20;;;;;;4989304;28;20479;-79
2023/09/20 12:34:41;;;;;;;3.23;1.50;;;25.30;23.00;;;;;;4990065;28;20445;-77
2023/09/20 12:37:27;;;;;;;4.40;1.40;;;25.10;21.10;;;;;;4985047;28;20978;-76
2023/09/20 12:40:13;;;;;;;3.50;1.97;;;25.10;21.70;;;;;;4983767;28;20506;-78
2023/09/20 12:43:01;;;;;;;4.20;1.50;;;25.10;21.10;;;;;;4983888;28;20448;-78
2023/09/20 12:45:47;;;;;;;3.87;1.23;;;25.30;22.30;;;;;;4988693;28;20541;-76
2023/09/20 12:48:36;;;;;;;3.90;1.57;;;25.50;21.00;;;;;;4986895;28;20452;-78
2023/09/20 12:51:22;;;;;;;2.70;1.60;;;25.50;20.70;;;;;;4987856;28;20465;-75
2023/09/20 12:54:09;;;;;;;3.93;1.73;;;25.80;22.70;;;;;;4988996;28;20966;-74
2023/09/20 12:56:55;;;;;;;4.00;1.93;;;25.90;20.20;;;;;;4991248;28;20473;-78
2023/09/20 12:59:41;;;;;;;3.57;1.63;;;26.00;20.10;;;;;;4987139;28;20486;-76
2023/09/20 13:02:27;;;;;;;4.00;1.70;;;26.20;20.90;;;;;;4987955;28;20455;-78
2023/09/20 13:05:14;;;;;;;2.90;1.53;;;26.50;20.40;;;;;;4989853;28;20457;-76
2023/09/20 13:08:00;;;;;;;6.00;1.50;;;26.50;19.70;;;;;;4984887;28;20458;-78
2023/09/20 13:10:47;;;;;;;7.17;1.37;;;26.60;18.60;;;;;;4986768;28;20534;-78
2023/09/20 13:13:33;;;;;;;3.97;1.70;;;26.40;18.40;;;;;;4986435;28;20789;-79
2023/09/20 13:16:19;;;;;;;4.87;1.83;;;26.60;20.00;;;;;;4991237;28;20507;-77
2023/09/20 13:19:06;;;;;;;4.67;1.63;;;26.80;19.40;;;;;;4989033;28;20473;-78
2023/09/20 13:21:53;;;;;;;3.23;1.40;;;27.10;20.10;;;;;;4992487;28;20702;-78
2023/09/20 13:24:40;;;;;;;6.23;1.67;;;26.90;18.10;;;;;;4990141;28;21017;-77
2023/09/20 13:27:26;;;;;;;3.43;1.60;;;27.00;17.30;;;;;;4984608;28;20525;-76
2023/09/20 13:30:13;;;;;;;3.93;1.37;;;27.10;16.80;;;;;;4983562;28;20470;-77
2023/09/20 13:32:59;;;;;;;5.47;1.50;;;27.10;17.90;;;;;;4985997;28;20445;-77
2023/09/20 13:35:45;;;;;;;4.20;1.47;;;27.20;16.80;;;;;;4985191;28;20471;-77
2023/09/20 13:38:32;;;;;;;8.20;1.30;;;27.10;15.70;;;;;;4984307;28;20441;-78
2023/09/20 13:41:18;;;;;;;5.73;1.87;;;27.20;15.70;;;;;;4980740;28;20555;-77
2023/09/20 13:44:04;;;;;;;3.13;1.23;;;27.40;17.40;;;;;;4982305;28;20457;-77
2023/09/20 13:46:50;;;;;;;3.93;1.40;;;27.40;15.10;;;;;;4985069;28;20452;-77
2023/09/20 13:49:36;;;;;;;3.17;1.40;;;27.70;16.60;;;;;;4984923;28;20473;-77
2023/09/20 13:52:21;;;;;;;5.03;1.40;;;27.80;15.60;;;;;;4979791;28;20449;-78
2023/09/20 13:55:11;;;;;;;4.27;1.67;;;27.80;16.70;;;;;;4985143;28;20531;-77
2023/09/20 13:57:57;;;;;;;3.43;1.27;;;27.50;15.50;;;;;;4984379;28;20448;-77
2023/09/20 14:00:42;;;;;;;4.93;1.90;;;27.60;16.50;;;;;;4984440;28;22193;-77
2023/09/20 14:03:28;;;;;;;5.63;1.53;;;27.90;14.80;;;;;;4981031;28;20438;-77
2023/09/20 14:06:16;;;;;;;3.63;1.83;;;28.10;14.90;;;;;;4983248;28;20493;-77
2023/09/20 14:09:02;;;;;;;4.67;2.00;;;28.20;13.00;;;;;;4984847;28;20452;-77
2023/09/20 14:11:49;;;;;;;4.73;1.50;;;27.90;13.70;;;;;;4985358;28;20495;-77
2023/09/20 14:14:35;;;;;;;3.93;2.00;;;28.10;14.00;;;;;;4983732;28;20461;-77
2023/09/20 14:17:20;;;;;;;4.20;1.70;;;28.10;13.10;;;;;;4981927;28;20449;-77
2023/09/20 14:20:09;;;;;;;6.50;2.13;;;28.10;12.70;;;;;;4980538;28;20496;-79
2023/09/20 14:22:56;;;;;;;5.33;1.73;;;27.60;13.30;;;;;;4980534;28;20503;-77
2023/09/20 14:25:41;;;;;;;3.00;1.60;;;27.50;14.10;;;;;;4983787;28;22614;-77
2023/09/20 14:28:28;;;;;;;3.60;1.70;;;27.30;14.00;;;;;;4982907;28;21134;-76
2023/09/20 14:31:15;;;;;;;4.00;1.90;;;27.60;14.60;;;;;;4984169;28;20469;-76
2023/09/20 14:34:00;;;;;;;4.70;1.60;;;27.70;14.90;;;;;;4984861;28;20446;-77
2023/09/20 14:36:47;;;;;;;4.60;1.60;;;27.70;13.80;;;;;;4981209;28;21044;-76
2023/09/20 14:39:33;;;;;;;2.90;1.53;;;27.70;14.30;;;;;;4983072;28;20461;-76
2023/09/20 14:42:19;;;;;;;4.27;2.27;;;27.80;13.40;;;;;;4982502;28;20833;-77
2023/09/20 14:45:08;;;;;;;4.97;2.20;;;27.90;13.90;;;;;;4984575;28;20446;-77
2023/09/20 14:47:54;;;;;;;4.70;1.80;;;28.00;15.10;;;;;;4988017;28;20449;-76
2023/09/20 14:50:40;;;;;;;3.60;1.67;;;27.80;13.60;;;;;;4984738;28;20463;-77
2023/09/20 14:53:25;;;;;;;3.67;1.60;;;27.60;14.30;;;;;;4984908;28;20518;-76
2023/09/20 14:56:13;;;;;;;6.93;2.63;;;27.80;14.80;;;;;;4987600;28;20444;-77
2023/09/20 14:58:59;;;;;;;3.70;1.90;;;27.80;16.00;;;;;;4979513;28;20809;-76
2023/09/20 15:01:46;;;;;;;2.67;1.23;;;27.50;13.90;;;;;;4978053;28;20504;-77
2023/09/20 15:04:32;;;;;;;8.70;2.03;;;27.50;15.60;;;;;;4979008;28;20452;-76
2023/09/20 15:07:18;;;;;;;3.67;1.87;;;27.20;14.50;;;;;;4983402;28;20533;-77